Time;durP1;ratioP1;P1;durP2;ratioP2;P2;SDS_P1;SDS_P2;PMS_P1;PMS_P2;Temp;Humidity;BMP_temperature;BMP_pressure;BME280_temperature;BME280_humidity;BME280_pressure;Samples;Min_cycle;Max_cycle;Signal;HPM_P1;HPM_P2
2022/10/08 00:01:08;;;;;;;;;31.00;29.33;;;;;18.83;74.27;100831.34;4604028;28;3603433;-72
2022/10/08 00:03:37;;;;;;;;;26.00;24.00;;;;;18.75;74.20;100814.56;4605073;28;3578369;-72
2022/10/08 00:06:14;;;;;;;;;26.67;24.00;;;;;18.82;74.46;100819.03;4605189;28;3586738;-73
2022/10/08 00:08:43;;;;;;;;;22.67;21.67;;;;;18.87;74.36;100822.53;4604819;28;3575288;-72
2022/10/08 00:11:12;;;;;;;;;25.67;23.67;;;;;18.89;73.94;100827.84;4604105;28;3580500;-72
2022/10/08 00:13:40;;;;;;;;;26.33;24.00;;;;;18.86;74.22;100820.78;4603043;28;3584654;-71
2022/10/08 00:16:25;;;;;;;;;25.00;21.67;;;;;18.82;74.63;100824.31;4604174;28;3579451;-70
2022/10/08 00:18:54;;;;;;;;;26.33;23.33;;;;;18.75;74.14;100798.69;4604635;28;3581521;-72
2022/10/08 00:21:28;;;;;;;;;26.67;20.33;;;;;18.87;74.23;100819.88;4599607;28;3583632;-72
2022/10/08 00:23:56;;;;;;;;;22.00;21.00;;;;;18.89;73.69;100817.25;4626627;28;3585712;-73
2022/10/08 00:26:26;;;;;;;;;24.67;22.33;;;;;18.77;74.31;100799.56;4602535;28;3576334;-73
2022/10/08 00:28:55;;;;;;;;;27.67;25.67;;;;;18.82;74.34;100812.81;4609132;28;3591945;-73
2022/10/08 00:31:28;;;;;;;;;25.33;23.67;;;;;18.78;74.90;100809.28;4610063;28;3581893;-73
2022/10/08 00:33:56;;;;;;;;;27.33;24.67;;;;;18.77;74.40;100806.63;4637953;28;3582552;-73
2022/10/08 00:36:25;;;;;;;;;27.33;23.67;;;;;18.69;74.10;100790.75;4614977;28;3580479;-72
2022/10/08 00:38:58;;;;;;;;;24.67;24.33;;;;;18.66;74.95;100796.03;4615326;28;3574230;-73
2022/10/08 00:41:28;;;;;;;;;27.33;23.67;;;;;18.62;74.39;100788.97;4615289;28;3582532;-73
2022/10/08 00:43:58;;;;;;;;;26.67;25.00;;;;;18.64;74.46;100795.13;4616812;28;3582544;-73
2022/10/08 00:46:44;;;;;;;;;27.33;24.67;;;;;18.71;74.70;100809.28;4618153;28;3576277;-73
2022/10/08 00:49:17;;;;;;;;;21.67;18.00;;;;;18.69;74.70;100811.91;4613541;28;2840002;-72
2022/10/08 00:51:49;;;;;;;;;22.33;22.33;;;;;18.64;74.62;100814.56;4641275;28;3582555;-71
2022/10/08 00:54:18;;;;;;;;;24.67;22.00;;;;;18.65;74.75;100812.78;4618215;28;3584630;-70
2022/10/08 00:56:47;;;;;;;;;25.00;23.00;;;;;18.63;74.62;100804.84;4618245;28;3577319;-70
2022/10/08 00:59:16;;;;;;;;;26.67;23.67;;;;;18.63;74.53;100803.97;4612291;28;3580503;-71
2022/10/08 01:01:43;;;;;;;;;29.00;24.67;;;;;18.65;74.72;100815.44;4639464;28;3582575;-70
2022/10/08 01:04:12;;;;;;;;;28.00;24.33;;;;;18.67;74.72;100806.63;4617742;28;3587145;-72
2022/10/08 01:07:01;;;;;;;;;24.33;22.33;;;;;18.69;74.78;100806.63;4618063;28;3581506;-73
2022/10/08 01:09:39;;;;;;;;;27.33;24.67;;;;;18.71;74.81;100803.97;4618049;28;3587848;-72
2022/10/08 01:12:17;;;;;;;;;31.67;28.00;;;;;18.56;75.55;100800.44;4616466;28;3602357;-73
2022/10/08 01:15:05;;;;;;;;;30.50;29.25;;;;;18.53;75.80;100802.19;4616077;28;3594049;-73
2022/10/08 01:17:53;;;;;;;;;27.33;26.00;;;;;18.57;75.46;100801.31;4640403;28;3576317;-73
2022/10/08 01:20:44;;;;;;;;;28.00;26.00;;;;;18.56;75.40;100796.91;4618131;28;3583585;-72
2022/10/08 01:23:38;;;;;;;;;28.25;26.00;;;;;18.44;75.48;100779.25;4617624;28;3596222;-72
2022/10/08 01:26:10;;;;;;;;;29.67;27.33;;;;;18.60;75.59;100798.66;4640128;28;3583608;-73
2022/10/08 01:28:47;;;;;;;;;27.33;25.33;;;;;18.63;75.45;100804.84;4616550;28;3587776;-72
2022/10/08 01:31:30;;;;;;;;;28.67;27.00;;;;;18.57;75.25;100791.63;4618013;28;3592313;-72
2022/10/08 01:34:02;;;;;;;;;33.00;28.33;;;;;18.62;75.28;100799.53;4617481;28;3596092;-72
2022/10/08 01:36:38;;;;;;;;;25.33;22.33;;;;;18.70;75.07;100808.38;4612919;28;3583593;-72
2022/10/08 01:39:11;;;;;;;;;28.00;26.67;;;;;18.62;75.26;100791.59;4640072;28;3573188;-71
2022/10/08 01:41:40;;;;;;;;;31.33;28.33;;;;;18.60;75.68;100789.00;4617734;28;3590888;-72
2022/10/08 01:44:14;;;;;;;;;29.25;25.25;;;;;18.64;75.48;100797.78;4615692;28;3602330;-71
2022/10/08 01:46:45;;;;;;;;;25.00;24.00;;;;;18.52;75.41;100766.03;4640527;28;3575291;-70
2022/10/08 01:49:21;;;;;;;;;31.33;25.33;;;;;18.71;74.99;100794.28;4615898;28;3594084;-71
2022/10/08 01:51:54;;;;;;;;;26.33;24.67;;;;;18.58;75.47;100774.88;4617760;28;3586135;-71
2022/10/08 01:54:24;;;;;;;;;23.33;22.33;;;;;18.64;75.17;100771.31;4616987;28;3582535;-73
2022/10/08 01:56:54;;;;;;;;;24.33;21.33;;;;;18.79;74.69;100783.69;4611933;28;3588853;-73
2022/10/08 01:59:26;;;;;;;;;26.67;24.00;;;;;18.79;74.79;100787.25;4638745;28;3580503;-70
2022/10/08 02:02:16;;;;;;;;;25.67;22.67;;;;;18.82;74.80;100786.34;4612869;28;3577355;-72
2022/10/08 02:04:43;;;;;;;;;27.33;26.67;;;;;18.84;74.99;100787.25;4638760;28;3592983;-72
2022/10/08 02:07:19;;;;;;;;;26.67;24.00;;;;;18.82;74.92;100779.31;4617472;28;3576669;-72
2022/10/08 02:09:52;;;;;;;;;26.67;24.67;;;;;18.79;75.05;100773.09;4617261;28;3582554;-72
2022/10/08 02:12:21;;;;;;;;;27.67;25.33;;;;;18.65;74.54;100744.88;4618275;28;3587759;-72
2022/10/08 02:14:56;;;;;;;;;23.67;22.00;;;;;18.87;74.65;100779.31;4617037;28;3581530;-72
2022/10/08 02:17:34;;;;;;;;;20.00;19.33;;;;;18.86;74.80;100780.19;4611573;28;2827364;-72
2022/10/08 02:20:24;;;;;;;;;20.33;18.67;;;;;18.85;74.95;100778.44;4639793;28;3571094;-73
2022/10/08 02:23:42;;;;;;;;;20.33;20.00;;;;;18.83;74.85;100778.44;4617127;28;3577339;-71
2022/10/08 02:26:18;;;;;;;;;22.00;22.00;;;;;18.82;74.58;100766.09;4599493;28;3578486;-71
2022/10/08 02:28:59;;;;;;;;;24.33;23.00;;;;;18.87;74.82;100777.53;4616950;28;3585692;-71
2022/10/08 02:31:25;;;;;;;;;27.33;24.67;;;;;18.83;75.47;100775.78;4616549;28;3588821;-70
2022/10/08 02:33:56;;;;;;;;;21.67;21.00;;;;;18.70;75.78;100763.38;4627194;28;3572147;-71
2022/10/08 02:36:30;;;;;;;;;22.67;22.67;;;;;18.56;75.96;100750.19;4639748;28;3583942;-72
2022/10/08 02:39:02;;;;;;;;;28.75;25.00;;;;;18.57;76.21;100759.88;4616337;28;3582574;-72
2022/10/08 02:41:51;;;;;;;;;25.00;22.67;;;;;18.65;76.06;100765.16;4639903;28;3586690;-73
2022/10/08 02:44:31;;;;;;;;;28.67;25.00;;;;;18.60;75.87;100761.63;4617044;28;3588836;-71
2022/10/08 02:47:03;;;;;;;;;28.00;26.33;;;;;18.60;76.81;100780.16;4616393;28;3579438;-71
2022/10/08 02:49:36;;;;;;;;;31.00;30.00;;;;;18.45;77.30;100768.66;4611642;28;3598199;-73
2022/10/08 02:52:07;;;;;;;;;27.00;24.67;;;;;18.33;77.60;100758.09;4639812;28;3580455;-73
2022/10/08 02:54:40;;;;;;;;;28.00;26.67;;;;;18.39;77.01;100763.38;4616551;28;3587744;-72
2022/10/08 02:57:28;;;;;;;;;29.33;27.67;;;;;18.51;77.17;100782.81;4616398;28;3588792;-73
2022/10/08 02:59:55;;;;;;;;;25.67;23.67;;;;;18.53;77.34;100783.69;4616241;28;3579434;-72
2022/10/08 03:02:45;;;;;;;;;29.67;26.33;;;;;18.49;77.32;100775.72;4615074;28;3591938;-73
2022/10/08 03:05:17;;;;;;;;;29.67;26.33;;;;;18.50;76.68;100776.59;4609281;28;3600256;-72
2022/10/08 03:07:46;;;;;;;;;28.67;28.67;;;;;18.47;76.58;100772.19;4639065;28;3594032;-71
2022/10/08 03:10:13;;;;;;;;;25.67;24.33;;;;;18.48;76.63;100787.22;4616294;28;3582543;-70
2022/10/08 03:12:39;;;;;;;;;26.33;24.67;;;;;18.36;77.04;100781.00;4626058;28;3576317;-70
2022/10/08 03:15:12;;;;;;;;;29.00;27.67;;;;;18.15;76.84;100750.13;4625374;28;3597158;-71
2022/10/08 03:17:43;;;;;;;;;27.33;27.00;;;;;18.22;78.66;100781.88;4614492;28;3581513;-70
2022/10/08 03:20:11;;;;;;;;;31.25;29.75;;;;;18.16;78.64;100757.16;4615617;28;3597233;-70
2022/10/08 03:22:39;;;;;;;;;23.67;23.00;;;;;18.27;78.46;100766.00;4638952;28;3590179;-73
2022/10/08 03:25:06;;;;;;;;;28.33;26.00;;;;;18.40;77.19;100786.31;4616034;28;3577332;-72
2022/10/08 03:27:34;;;;;;;;;27.00;23.00;;;;;18.28;77.85;100758.09;4618674;28;3588805;-73
2022/10/08 03:30:01;;;;;;;;;26.33;21.67;;;;;18.34;77.74;100764.25;4615784;28;3575657;-73
2022/10/08 03:32:29;;;;;;;;;23.67;22.67;;;;;18.43;78.30;100775.72;4609534;28;3585680;-73
2022/10/08 03:34:56;;;;;;;;;23.00;22.33;;;;;18.43;78.35;100772.22;4648283;28;3586718;-73
2022/10/08 03:37:23;;;;;;;;;28.67;26.00;;;;;18.42;79.34;100778.34;4618984;28;3578418;-73
2022/10/08 03:39:49;;;;;;;;;29.00;26.00;;;;;18.42;79.24;100776.63;4625114;28;3574246;-72
2022/10/08 03:42:16;;;;;;;;;24.33;21.33;;;;;18.38;79.53;100785.44;4626921;28;3588777;-73
2022/10/08 03:44:43;;;;;;;;;25.00;21.67;;;;;18.34;79.75;100781.00;4626695;28;3567993;-73
2022/10/08 03:47:11;;;;;;;;;22.67;22.67;;;;;18.40;79.29;100791.59;4620988;28;2844167;-73
2022/10/08 03:49:38;;;;;;;;;31.33;25.33;;;;;18.35;79.37;100785.41;4633014;28;3591930;-72
2022/10/08 03:52:05;;;;;;;;;22.00;21.33;;;;;18.38;79.67;100792.47;4638578;28;3573168;-73
2022/10/08 03:54:35;;;;;;;;;23.33;22.00;;;;;18.35;79.83;100782.78;4616174;28;3584622;-73
2022/10/08 03:57:03;;;;;;;;;24.33;23.00;;;;;18.49;79.46;100801.31;4627355;27;3574622;-71
2022/10/08 03:59:29;;;;;;;;;24.00;24.00;;;;;18.45;79.28;100786.31;4612652;28;3586741;-71
2022/10/08 04:01:57;;;;;;;;;30.00;23.75;;;;;18.52;79.89;100800.41;4623468;28;3590215;-72
2022/10/08 04:04:23;;;;;;;;;27.67;24.00;;;;;18.46;79.00;100796.00;4637025;28;3583648;-70
2022/10/08 04:06:50;;;;;;;;;26.33;23.33;;;;;18.36;78.27;100789.81;4624928;28;3586761;-71
2022/10/08 04:09:18;;;;;;;;;23.33;21.67;;;;;18.41;78.56;100793.34;4620140;28;3581506;-73
2022/10/08 04:11:46;;;;;;;;;24.67;22.67;;;;;18.44;78.08;100790.72;4643516;28;3573184;-72
2022/10/08 04:14:13;;;;;;;;;20.00;19.50;;;;;18.51;77.97;100794.25;4644970;28;2836076;-70
2022/10/08 04:16:39;;;;;;;;;22.00;21.00;;;;;18.53;78.54;100797.78;4626224;28;3584622;-73
2022/10/08 04:19:05;;;;;;;;;23.50;22.50;;;;;18.59;78.11;100807.50;4626893;28;1879512;-73
2022/10/08 04:21:31;;;;;;;;;27.50;23.50;;;;;18.57;78.28;100798.69;4626916;28;1887863;-73
2022/10/08 04:23:57;;;;;;;;;28.50;24.00;;;;;18.61;78.15;100792.50;4627506;28;1877347;-72
2022/10/08 04:26:23;;;;;;;;;26.50;24.00;;;;;18.69;78.15;100819.84;4626616;28;1890818;-72
2022/10/08 04:28:49;;;;;;;;;27.50;25.00;;;;;18.18;78.33;100727.19;4627597;28;1887880;-72
2022/10/08 04:31:20;;;;;;;;;28.50;27.50;;;;;18.60;78.45;100804.88;4628096;28;1887829;-70
2022/10/08 04:33:46;;;;;;;;;28.67;27.67;;;;;18.61;78.74;100801.31;4615325;28;3578395;-71
2022/10/08 04:36:22;;;;;;;;;24.67;23.00;;;;;18.62;78.49;100803.09;4623231;28;3579756;-71
2022/10/08 04:38:50;;;;;;;;;26.67;23.00;;;;;18.74;78.59;100820.75;4592013;28;3574198;-70
2022/10/08 04:41:25;;;;;;;;;25.00;24.00;;;;;18.64;78.47;100805.72;4638006;28;3587742;-71
2022/10/08 04:43:53;;;;;;;;;28.00;25.33;;;;;18.63;78.64;100803.97;4615663;28;3583616;-71
2022/10/08 04:46:21;;;;;;;;;24.67;23.00;;;;;18.66;78.40;100811.91;4610029;28;3585001;-72
2022/10/08 04:48:54;;;;;;;;;28.67;24.00;;;;;18.65;78.75;100815.44;4632625;28;3586690;-73
2022/10/08 04:51:23;;;;;;;;;25.00;23.33;;;;;18.67;78.60;100826.91;4637926;28;3586729;-72
2022/10/08 04:53:51;;;;;;;;;23.00;22.67;;;;;18.64;78.75;100822.50;4610521;28;2838842;-71
2022/10/08 04:56:24;;;;;;;;;24.00;21.67;;;;;18.47;78.84;100801.31;4632755;28;3582547;-73
2022/10/08 04:58:51;;;;;;;;;32.33;26.33;;;;;18.62;79.70;100833.94;4637849;28;3604460;-71
2022/10/08 05:01:19;;;;;;;;;25.33;24.00;;;;;18.61;79.15;100834.84;4614512;28;3579438;-72
2022/10/08 05:03:48;;;;;;;;;25.67;24.00;;;;;18.62;79.54;100833.94;4615178;28;3578774;-72
2022/10/08 05:06:17;;;;;;;;;28.67;27.00;;;;;18.53;79.68;100833.94;4614529;28;3589835;-72
2022/10/08 05:08:45;;;;;;;;;24.33;21.00;;;;;18.48;79.77;100820.69;4591436;28;2829585;-72
2022/10/08 05:11:13;;;;;;;;;21.67;19.67;;;;;18.55;79.39;100829.53;4637925;28;3572146;-73
2022/10/08 05:13:40;;;;;;;;;17.50;17.50;;;;;18.49;79.04;100819.81;4610254;28;2827362;-73
2022/10/08 05:16:12;;;;;;;;;18.00;16.00;;;;;18.56;79.21;100832.19;4615138;28;3556575;-72
2022/10/08 05:18:40;;;;;;;;;15.00;14.00;;;;;18.60;79.11;100836.63;4590190;28;3544004;-73
2022/10/08 05:21:11;;;;;;;;;10.33;10.33;;;;;18.61;78.83;100840.13;4609019;28;3501653;-72
2022/10/08 05:23:38;;;;;;;;;14.00;12.50;;;;;18.49;79.04;100818.06;4639131;28;2798211;-72
2022/10/08 05:26:24;;;;;;;;;15.50;14.00;;;;;18.56;79.03;100824.25;4597822;28;2783624;-73
2022/10/08 05:28:53;;;;;;;;;19.00;18.50;;;;;18.48;79.00;100811.00;4614389;28;2481471;-72
2022/10/08 05:31:21;;;;;;;;;21.33;20.33;;;;;18.68;78.79;100841.88;4617811;28;3579792;-71
2022/10/08 05:33:48;;;;;;;;;18.00;16.00;;;;;18.66;79.02;100833.97;4594959;28;2819075;-73
2022/10/08 05:36:18;;;;;;;;;18.50;14.50;;;;;18.65;79.00;100833.97;4611769;28;2813809;-73
2022/10/08 05:38:45;;;;;;;;;17.33;14.00;;;;;18.62;78.74;100828.66;4611636;28;3544321;-73
2022/10/08 05:41:18;;;;;;;;;20.33;17.00;;;;;18.58;79.23;100826.88;4621153;28;3558594;-72
2022/10/08 05:43:45;;;;;;;;;20.00;18.50;;;;;18.68;79.07;100842.78;4612130;28;2826331;-73
2022/10/08 05:46:14;;;;;;;;;23.33;22.00;;;;;18.67;79.20;100840.13;4594922;28;3581525;-73
2022/10/08 05:48:41;;;;;;;;;21.67;19.67;;;;;18.67;79.12;100837.50;4611431;28;3565916;-72
2022/10/08 05:51:11;;;;;;;;;19.67;18.67;;;;;18.63;79.06;100836.59;4602259;28;2828509;-71
2022/10/08 05:53:40;;;;;;;;;23.00;21.33;;;;;18.68;79.10;100842.78;4611005;28;3570056;-72
2022/10/08 05:56:10;;;;;;;;;18.33;18.33;;;;;18.64;78.59;100834.84;4601323;28;2832613;-71
2022/10/08 05:58:39;;;;;;;;;23.00;23.00;;;;;18.62;78.60;100833.94;4629915;28;3580467;-70
2022/10/08 06:01:09;;;;;;;;;22.67;20.67;;;;;18.57;78.78;100826.00;4598313;28;2837845;-72
2022/10/08 06:03:36;;;;;;;;;21.00;20.00;;;;;18.62;78.46;100828.66;4580139;28;2839879;-72
2022/10/08 06:06:04;;;;;;;;;27.50;23.00;;;;;18.61;78.75;100826.91;4593549;28;1876302;-72
2022/10/08 06:08:32;;;;;;;;;24.00;24.00;;;;;18.60;78.54;100827.78;4580710;28;3582929;-70
2022/10/08 06:10:59;;;;;;;;;24.33;21.00;;;;;18.65;78.75;100845.41;4580788;28;3571094;-70
2022/10/08 06:13:26;;;;;;;;;24.00;23.33;;;;;18.58;78.47;100827.78;4581245;28;3582555;-70
2022/10/08 06:16:05;;;;;;;;;24.67;21.00;;;;;18.58;78.29;100833.09;4563355;28;2833778;-70
2022/10/08 06:18:36;;;;;;;;;21.50;18.50;;;;;18.59;78.11;100831.31;4598395;28;2828436;-71
2022/10/08 06:21:14;;;;;;;;;26.33;22.33;;;;;18.53;79.08;100837.47;4580217;28;3575271;-72
2022/10/08 06:23:47;;;;;;;;;22.00;19.67;;;;;18.51;78.96;100827.78;4575799;28;2837781;-72
2022/10/08 06:26:16;;;;;;;;;23.67;21.33;;;;;18.51;79.15;100833.94;4598294;28;2842083;-73
2022/10/08 06:28:44;;;;;;;;;23.00;20.00;;;;;18.53;78.84;100829.53;4580165;28;2832697;-74
2022/10/08 06:31:12;;;;;;;;;23.67;17.67;;;;;18.62;78.78;100852.47;4603829;28;2839860;-71
2022/10/08 06:33:38;;;;;;;;;14.00;11.00;;;;;18.54;78.53;100831.28;4621179;28;2804446;-73
2022/10/08 06:36:14;;;;;;;;;22.67;22.33;;;;;18.57;78.63;100841.00;4602324;28;2848259;-68
2022/10/08 06:38:41;;;;;;;;;21.00;20.00;;;;;18.56;78.89;100839.22;4629361;28;2832582;-69
2022/10/08 06:41:09;;;;;;;;;24.33;23.67;;;;;18.57;78.67;100841.88;4618667;28;2853501;-68
2022/10/08 06:43:35;;;;;;;;;21.33;20.33;;;;;18.58;78.60;100854.25;4636222;28;3562174;-70
2022/10/08 06:46:06;;;;;;;;;26.33;25.00;;;;;18.73;78.84;100863.97;4590692;27;3581918;-69
2022/10/08 06:48:32;;;;;;;;;23.33;23.33;;;;;18.77;78.44;100867.50;4627450;28;3583621;-69
2022/10/08 06:51:03;;;;;;;;;22.33;21.67;;;;;18.76;78.90;100863.06;4576391;28;2834098;-68
2022/10/08 06:53:31;;;;;;;;;11.80;6.80;;;;;18.67;78.55;100866.59;4630407;28;2771133;-71
2022/10/08 06:55:59;;;;;;;;;19.00;18.50;;;;;18.71;78.78;100871.03;4591240;28;2833687;-70
2022/10/08 06:58:26;;;;;;;;;18.00;18.00;;;;;18.71;78.44;100872.78;4590469;28;2822188;-72
2022/10/08 07:01:18;;;;;;;;;21.50;18.50;;;;;18.70;79.00;100874.53;4589779;28;2828438;-68
2022/10/08 07:04:04;;;;;;;;;20.00;18.50;;;;;18.63;78.51;100862.19;4589586;28;2829457;-69
2022/10/08 07:06:30;;;;;;;;;19.00;17.00;;;;;18.59;78.69;100850.72;4592087;28;2831613;-69
2022/10/08 07:08:59;;;;;;;;;16.00;13.00;;;;;18.76;78.80;100884.25;4598013;28;2483602;-70
2022/10/08 07:11:26;;;;;;;;;16.33;14.67;;;;;18.79;78.33;100882.53;4592661;28;2485681;-70
2022/10/08 07:13:56;;;;;;;;;14.00;11.33;;;;;18.82;78.53;100890.50;4615866;28;3518976;-69
2022/10/08 07:16:25;;;;;;;;;14.00;12.67;;;;;18.85;78.31;100893.13;4590182;28;3534632;-68
2022/10/08 07:18:53;;;;;;;;;12.33;10.00;;;;;18.87;78.38;100896.66;4598451;28;2785673;-69
2022/10/08 07:21:20;;;;;;;;;11.00;9.33;;;;;18.91;78.13;100889.59;4620366;28;2784639;-71
2022/10/08 07:23:49;;;;;;;;;8.00;8.00;;;;;18.96;77.87;100886.94;4634968;28;2745061;-69
2022/10/08 07:26:21;;;;;;;;;6.80;6.60;;;;;18.95;77.56;100888.72;4616070;28;2735662;-69
2022/10/08 07:28:58;;;;;;;;;10.33;8.00;;;;;19.03;77.55;100894.91;4607596;28;2761738;-71
2022/10/08 07:31:30;;;;;;;;;7.40;7.00;;;;;18.99;77.20;100882.56;4636728;28;2736704;-68
2022/10/08 07:33:58;;;;;;;;;11.00;10.00;;;;;19.05;76.78;100893.13;4595527;28;2791954;-68
2022/10/08 07:36:27;;;;;;;;;6.80;5.40;;;;;19.20;76.20;100904.63;4625163;28;2745065;-69
2022/10/08 07:38:57;;;;;;;;;7.00;6.00;;;;;19.15;75.94;100888.72;4626594;28;2730898;-68
2022/10/08 07:41:25;;;;;;;;;7.20;6.80;;;;;19.26;75.06;100902.88;4634105;28;2732636;-70
2022/10/08 07:43:59;;;;;;;;;4.80;4.00;;;;;19.34;75.03;100910.81;4637078;28;2737786;-69
2022/10/08 07:46:32;;;;;;;;;7.00;6.00;;;;;19.40;74.77;100918.75;4614072;28;2742982;-70
2022/10/08 07:49:00;;;;;;;;;8.00;7.00;;;;;19.39;75.11;100913.47;4613265;28;2742274;-69
2022/10/08 07:51:28;;;;;;;;;8.00;6.33;;;;;19.35;75.64;100909.03;4592199;28;2742997;-68
2022/10/08 07:53:57;;;;;;;;;5.80;4.00;;;;;19.35;75.32;100906.41;4637243;28;2746099;-69
2022/10/08 07:56:25;;;;;;;;;4.40;4.00;;;;;19.35;75.07;100915.22;4611881;28;2749628;-69
2022/10/08 07:58:52;;;;;;;;;7.80;5.00;;;;;19.34;75.10;100908.19;4616694;28;2746158;-70
2022/10/08 08:01:27;;;;;;;;;5.83;5.00;;;;;19.41;74.95;100909.03;4621498;28;2737127;-71
2022/10/08 08:03:57;;;;;;;;;6.60;4.60;;;;;19.43;75.24;100912.56;4614954;28;2746075;-73
2022/10/08 08:06:25;;;;;;;;;5.40;4.80;;;;;19.56;75.37;100926.72;4610874;28;2746155;-72
2022/10/08 08:08:51;;;;;;;;;8.00;6.00;;;;;19.57;75.00;100929.34;4592497;28;2747141;-70
2022/10/08 08:11:21;;;;;;;;;6.20;5.40;;;;;19.53;74.72;100913.44;4616177;28;2730490;-70
2022/10/08 08:13:51;;;;;;;;;5.00;4.60;;;;;19.62;74.49;100924.06;4634227;28;2752765;-73
2022/10/08 08:16:21;;;;;;;;;5.00;4.00;;;;;19.56;74.16;100919.63;4613854;28;2747145;-70
2022/10/08 08:18:52;;;;;;;;;4.20;4.20;;;;;19.56;74.29;100919.63;4611938;28;2743012;-70
2022/10/08 08:21:20;;;;;;;;;28.00;22.67;;;;;19.63;74.12;100925.81;4595396;28;3587772;-73
2022/10/08 08:23:51;;;;;;;;;7.00;6.00;;;;;19.55;74.19;100911.69;4612804;28;2741252;-74
2022/10/08 08:26:25;;;;;;;;;4.80;4.80;;;;;19.67;73.78;100936.38;4609771;28;2750619;-76
2022/10/08 08:28:54;;;;;;;;;8.00;7.00;;;;;19.61;74.53;100925.78;4614361;28;2737778;-71
2022/10/08 08:31:23;;;;;;;;;7.00;6.50;;;;;19.66;74.93;100939.06;4624816;28;2730479;-73
2022/10/08 08:33:53;;;;;;;;;18.00;15.50;;;;;19.62;74.87;100927.56;4593247;28;2815892;-71
2022/10/08 08:36:27;;;;;;;;;7.80;6.40;;;;;19.64;73.94;100924.94;4604327;28;2742946;-72
2022/10/08 08:38:53;;;;;;;;;5.67;4.67;;;;;19.84;73.56;100940.84;4585119;28;2748206;-71
2022/10/08 08:41:40;;;;;;;;;7.00;5.00;;;;;19.98;72.84;100943.47;4607329;28;2738189;-71
2022/10/08 08:44:11;;;;;;;;;4.60;4.20;;;;;20.17;72.26;100944.28;4604355;28;2744011;-74
2022/10/08 08:46:45;;;;;;;;;5.80;5.40;;;;;20.25;71.85;100932.78;4594260;28;2748214;-71
2022/10/08 08:49:39;;;;;;;;;24.67;19.67;;;;;20.45;72.00;100953.91;4572755;28;3578432;-70
2022/10/08 08:52:08;;;;;;;;;12.20;9.00;;;;;20.50;70.79;100929.13;4618270;28;2762773;-72
2022/10/08 08:54:36;;;;;;;;;7.80;6.40;;;;;20.71;69.63;100942.31;4595632;28;2738882;-73
2022/10/08 08:57:23;;;;;;;;;16.00;11.00;;;;;20.96;69.02;100945.69;4582293;28;3533551;-72
2022/10/08 08:59:55;;;;;;;;;8.00;8.00;;;;;21.16;68.99;100942.91;4596846;28;2748193;-69
2022/10/08 09:02:27;;;;;;;;;13.00;10.33;;;;;21.29;68.79;100927.75;4595555;28;3509661;-72
2022/10/08 09:04:59;;;;;;;;;11.50;9.50;;;;;21.45;67.73;100925.91;4605402;28;2780512;-73
2022/10/08 09:07:41;;;;;;;;;13.20;8.80;;;;;21.57;67.79;100933.75;4604054;28;2776282;-72
2022/10/08 09:10:15;;;;;;;;;8.00;6.00;;;;;21.94;66.79;100953.78;4561679;28;2740918;-73
2022/10/08 09:12:42;;;;;;;;;7.33;6.67;;;;;21.99;65.61;100942.19;4608965;28;2742986;-72
2022/10/08 09:15:22;;;;;;;;;6.60;6.00;;;;;22.02;65.46;100958.13;4640276;28;2745057;-72
2022/10/08 09:17:51;;;;;;;;;8.20;6.60;;;;;21.93;66.05;100942.25;4604410;28;2745100;-72
2022/10/08 09:20:22;;;;;;;;;6.00;6.00;;;;;22.10;65.51;100959.81;4603528;28;2724308;-71
2022/10/08 09:22:52;;;;;;;;;7.00;6.60;;;;;22.14;65.33;100957.09;4606022;28;2738784;-71
2022/10/08 09:25:27;;;;;;;;;4.00;4.00;;;;;22.08;65.63;100935.00;4600758;28;2746155;-72
2022/10/08 09:27:57;;;;;;;;;5.40;4.60;;;;;22.22;64.40;100960.56;4580046;28;2746094;-71
2022/10/08 09:30:23;;;;;;;;;6.67;5.00;;;;;22.13;64.40;100963.31;4575614;28;2742973;-72
2022/10/08 09:32:55;;;;;;;;;6.40;5.60;;;;;22.09;64.68;100955.41;4655217;28;2730447;-72
2022/10/08 09:35:24;;;;;;;;;4.80;4.00;;;;;22.09;64.85;100958.94;4634752;28;2742309;-72
2022/10/08 09:37:52;;;;;;;;;6.00;5.60;;;;;22.05;64.63;100962.53;4619492;28;2732585;-74
2022/10/08 09:40:23;;;;;;;;;6.40;5.80;;;;;21.90;64.33;100954.69;4618774;28;2734657;-73
2022/10/08 09:43:06;;;;;;;;;4.20;4.20;;;;;21.76;64.90;100954.84;4616385;28;2739868;-72
2022/10/08 09:45:37;;;;;;;;;6.67;6.00;;;;;21.64;65.83;100959.38;4595442;28;2732629;-73
2022/10/08 09:48:25;;;;;;;;;8.00;5.00;;;;;21.54;66.16;100946.19;4607221;28;2735730;-74
2022/10/08 09:51:17;;;;;;;;;7.00;6.00;;;;;21.55;66.51;100962.13;4619139;28;2731929;-71
2022/10/08 09:53:50;;;;;;;;;4.80;4.80;;;;;21.41;66.45;100950.69;4616603;28;2740898;-73
2022/10/08 09:56:27;;;;;;;;;5.20;5.00;;;;;21.34;66.65;100943.66;4615701;28;2746082;-74
2022/10/08 09:59:01;;;;;;;;;5.80;5.00;;;;;21.35;67.25;100948.97;4615839;28;2729445;-72
2022/10/08 10:01:32;;;;;;;;;7.00;6.60;;;;;21.34;67.05;100954.28;4615232;28;2733594;-72
2022/10/08 10:04:01;;;;;;;;;8.40;6.20;;;;;21.21;67.33;100954.38;4634923;28;2746143;-71
2022/10/08 10:06:32;;;;;;;;;4.40;4.00;;;;;21.18;67.69;100961.50;4596180;28;2748216;-72
2022/10/08 10:09:11;;;;;;;;;5.60;4.00;;;;;21.15;67.36;100962.41;4610520;28;2749319;-72
2022/10/08 10:11:47;;;;;;;;;5.00;4.00;;;;;21.18;67.64;100972.13;4596410;28;2746127;-70
2022/10/08 10:14:27;;;;;;;;;7.60;6.20;;;;;21.20;67.26;100957.94;4614306;28;2738811;-72
2022/10/08 10:17:03;;;;;;;;;6.60;4.40;;;;;21.30;66.80;100949.91;4594228;28;2746102;-73
2022/10/08 10:19:50;;;;;;;;;3.60;3.60;;;;;21.29;66.29;100940.16;4612059;28;2749224;-73
2022/10/08 10:22:32;;;;;;;;;5.20;4.00;;;;;21.26;65.64;100941.94;4623457;28;2746140;-73
2022/10/08 10:25:11;;;;;;;;;8.00;7.80;;;;;21.37;65.82;100954.28;4614855;28;2735651;-70
2022/10/08 10:27:48;;;;;;;;;11.20;7.40;;;;;21.28;66.11;100941.06;4596668;28;2757588;-73
2022/10/08 10:30:20;;;;;;;;;7.60;5.00;;;;;21.45;64.86;100955.13;4593767;28;2743073;-73
2022/10/08 10:33:04;;;;;;;;;6.00;5.60;;;;;21.50;65.02;100936.47;4578833;28;2724200;-72
2022/10/08 10:35:32;;;;;;;;;4.80;3.40;;;;;21.80;65.18;100951.25;4583136;28;2741897;-71
2022/10/08 10:38:08;;;;;;;;;21.00;19.00;;;;;22.08;64.03;100950.97;4562073;28;3574164;-71
2022/10/08 10:40:42;;;;;;;;;29.00;23.75;;;;;22.36;62.91;100949.78;4565768;28;3593003;-71
2022/10/08 10:43:33;;;;;;;;;6.20;6.20;;;;;22.69;61.62;100944.03;4601758;28;2734638;-72
2022/10/08 10:46:12;;;;;;;;;4.80;4.00;;;;;22.79;61.20;100919.91;4578291;28;2735682;-73
2022/10/08 10:48:40;;;;;;;;;5.60;4.00;;;;;22.97;61.23;100926.75;4601478;28;2746091;-73
2022/10/08 10:51:16;;;;;;;;;4.20;4.00;;;;;23.25;60.51;100941.47;4569510;28;2740906;-72
2022/10/08 10:53:47;;;;;;;;;6.80;3.00;;;;;23.31;60.04;100942.22;4601234;28;2750286;-71
2022/10/08 10:56:20;;;;;;;;;3.00;3.00;;;;;23.18;59.95;100922.91;4558200;28;2754503;-74
2022/10/08 10:58:59;;;;;;;;;6.60;5.60;;;;;23.27;58.51;100934.31;4577830;28;2739864;-72
2022/10/08 11:01:51;;;;;;;;;6.80;5.20;;;;;23.14;59.50;100936.28;4559900;28;2738093;-72
2022/10/08 11:04:37;;;;;;;;;7.80;4.60;;;;;23.14;59.43;100930.97;4588257;28;2748186;-74
2022/10/08 11:07:34;;;;;;;;;6.20;6.00;;;;;23.11;59.90;100920.38;4585916;28;2736744;-72
2022/10/08 11:10:01;;;;;;;;;6.00;5.00;;;;;23.19;59.51;100934.44;4604195;28;2724200;-71
2022/10/08 11:13:13;;;;;;;;;10.80;9.20;;;;;23.31;59.36;100928.03;4586129;28;3497437;-70
2022/10/08 11:15:51;;;;;;;;;5.00;5.00;;;;;23.50;58.05;100928.63;4565956;28;2741176;-71
2022/10/08 11:18:45;;;;;;;;;6.00;4.20;;;;;23.59;56.23;100920.44;4577921;28;2743394;-70
2022/10/08 11:21:39;;;;;;;;;6.00;4.00;;;;;23.65;55.93;100914.97;4578329;28;2742987;-71
2022/10/08 11:24:33;;;;;;;;;6.20;5.00;;;;;23.50;55.59;100920.63;4572149;28;2746090;-71